KMHS/MHS METAR and TAF weather

Enter ICAO airport designator
Station Type Date Time Source
KMHS METAR 2018/12/13 22:56 UTC NOAA

KMHS 132256Z AUTO 00000KT 9SM CLR 12/M07 A3019 RMK AO2 SLP246 T01171072


Station Type Date Time Source
KMHS Decoded METAR 2018/12/13 22:56 UTC NOAA

MOUNT SHASTA, CA, United States (KMHS) 41-19N 122-19W 1078M
Dec 13, 2018 - 05:56 PM EST / 2018.12.13 2256 UTC
Wind: Calm:0
Visibility: 9 mile(s):0
Sky conditions: clear
Temperature: 53.1 F (11.7 C)
Dew Point: 19.0 F (-7.2 C)
Relative Humidity: 25%
Pressure (altimeter): 30.19 in. Hg (1022 hPa)
ob: KMHS 132256Z AUTO 00000KT 9SM CLR 12/M07 A3019 RMK AO2 SLP246 T01171072
cycle: 23

Station Type Date Time Source
KMHS TAF UTC NOAA

Error!


Example: see airport list